createdAt,value
2019-04-27T00:01:35.798Z,8.37
2019-04-27T00:05:05.022Z,8.33
2019-04-27T00:08:19.270Z,8.37
2019-04-27T00:11:31.002Z,7.77
2019-04-27T00:14:35.586Z,8.80
2019-04-27T00:17:58.281Z,7.60
2019-04-27T00:21:18.960Z,8.67
2019-04-27T00:24:23.576Z,8.10
2019-04-27T00:27:27.921Z,9.23
2019-04-27T00:30:33.387Z,8.03
2019-04-27T00:33:38.643Z,7.67
2019-04-27T00:36:51.047Z,8.40
2019-04-27T00:40:08.380Z,8.40
2019-04-27T00:43:14.054Z,7.30
2019-04-27T00:46:18.413Z,8.23
2019-04-27T00:49:23.891Z,7.37
2019-04-27T00:52:28.267Z,8.20
2019-04-27T00:55:34.443Z,8.60
2019-04-27T00:58:45.469Z,7.77
2019-04-27T01:02:14.731Z,7.50
2019-04-27T01:05:23.803Z,7.90
2019-04-27T01:08:28.291Z,8.40
2019-04-27T01:11:33.330Z,8.73
2019-04-27T01:14:37.799Z,7.87
2019-04-27T01:17:42.364Z,9.60
2019-04-27T01:20:46.659Z,8.13
2019-04-27T01:23:50.958Z,9.63
2019-04-27T01:27:32.566Z,8.47
2019-04-27T01:30:41.855Z,9.10
2019-04-27T01:33:46.106Z,8.47
2019-04-27T01:36:50.388Z,9.17
2019-04-27T01:39:54.891Z,9.30
2019-04-27T01:42:59.130Z,7.50
2019-04-27T01:46:03.510Z,8.80
2019-04-27T01:49:09.198Z,7.83
2019-04-27T01:52:13.527Z,7.50
2019-04-27T01:55:18.846Z,8.57
2019-04-27T01:58:23.374Z,8.73
2019-04-27T02:01:41.815Z,8.57
2019-04-27T02:05:05.102Z,7.77
2019-04-27T02:08:09.551Z,8.10
2019-04-27T02:11:14.071Z,7.97
2019-04-27T02:14:19.611Z,8.77
2019-04-27T02:17:24.039Z,8.20
2019-04-27T02:20:29.963Z,7.80
2019-04-27T02:23:34.518Z,8.63
2019-04-27T02:26:39.858Z,7.17
2019-04-27T02:30:04.967Z,8.27
2019-04-27T02:33:30.328Z,6.97
2019-04-27T02:36:34.755Z,7.90
2019-04-27T02:39:39.902Z,6.73
2019-04-27T02:42:46.113Z,7.00
2019-04-27T02:45:50.447Z,7.17
2019-04-27T02:49:00.070Z,5.80
2019-04-27T02:52:09.522Z,6.00
2019-04-27T02:55:13.945Z,5.50
2019-04-27T02:58:21.496Z,5.93
2019-04-27T03:01:26.703Z,5.70
2019-04-27T03:04:31.069Z,5.27
2019-04-27T03:07:35.357Z,5.63
2019-04-27T03:10:40.225Z,4.93
2019-04-27T03:14:03.690Z,5.13
2019-04-27T03:17:16.405Z,4.70
2019-04-27T03:20:31.922Z,5.17
2019-04-27T03:23:36.281Z,4.73
2019-04-27T03:26:45.195Z,5.60
2019-04-27T03:29:49.957Z,4.73
2019-04-27T03:32:56.642Z,5.17
2019-04-27T03:36:02.534Z,5.50
2019-04-27T03:39:10.166Z,5.60
2019-04-27T03:42:15.460Z,5.27
2019-04-27T03:45:20.171Z,5.63
2019-04-27T03:48:24.699Z,5.70
2019-04-27T03:51:40.031Z,5.67
2019-04-27T03:54:46.419Z,5.70
2019-04-27T03:58:00.406Z,6.70
2019-04-27T04:01:05.469Z,6.40
2019-04-27T04:04:10.593Z,6.17
2019-04-27T04:07:16.314Z,6.90
2019-04-27T04:10:20.660Z,6.73
2019-04-27T04:13:39.705Z,7.70
2019-04-27T04:16:53.868Z,7.70
2019-04-27T04:20:01.658Z,7.90
2019-04-27T04:23:06.215Z,7.27
2019-04-27T04:26:10.608Z,7.87
2019-04-27T04:29:14.853Z,8.03
2019-04-27T04:32:19.472Z,8.00
2019-04-27T04:35:26.344Z,8.33
2019-04-27T04:38:30.786Z,8.37
2019-04-27T04:41:43.629Z,9.17
2019-04-27T04:44:56.832Z,9.23
2019-04-27T04:48:04.196Z,9.47
2019-04-27T04:51:10.146Z,9.97
2019-04-27T04:54:14.320Z,9.07
2019-04-27T04:57:21.572Z,10.10
2019-04-27T05:00:24.614Z,9.60
2019-04-27T05:03:28.939Z,10.07
2019-04-27T05:06:33.184Z,10.50
2019-04-27T05:09:37.530Z,10.73
2019-04-27T05:12:41.787Z,11.30
2019-04-27T05:15:46.158Z,12.17
2019-04-27T05:18:50.414Z,11.07
2019-04-27T05:21:54.701Z,10.43
2019-04-27T05:25:01.673Z,11.10
2019-04-27T05:28:06.039Z,12.10
2019-04-27T05:31:10.399Z,12.77
2019-04-27T05:34:14.746Z,11.97
2019-04-27T05:37:27.571Z,12.90
2019-04-27T05:40:25.074Z,13.33
2019-04-27T05:43:36.193Z,15.13
2019-04-27T05:47:05.404Z,15.17
2019-04-27T05:50:13.389Z,15.47
2019-04-27T05:53:18.941Z,15.57
2019-04-27T05:56:23.377Z,16.40
2019-04-27T05:59:46.126Z,17.47
2019-04-27T06:02:50.502Z,17.53
2019-04-27T06:05:54.851Z,17.53
2019-04-27T06:08:59.503Z,18.33
2019-04-27T06:12:03.929Z,18.70
2019-04-27T06:15:09.734Z,18.77
2019-04-27T06:18:14.293Z,18.23
2019-04-27T06:21:19.631Z,19.03
2019-04-27T06:24:24.086Z,17.60
2019-04-27T06:27:30.542Z,17.83
2019-04-27T06:30:34.481Z,19.20
2019-04-27T06:33:40.334Z,17.60
2019-04-27T06:36:44.647Z,18.57
2019-04-27T06:39:49.502Z,17.33
2019-04-27T06:42:54.166Z,17.20
2019-04-27T06:46:01.446Z,16.97
2019-04-27T06:49:05.752Z,16.47
2019-04-27T06:52:10.094Z,16.27
2019-04-27T06:55:14.905Z,15.80
2019-04-27T06:58:20.007Z,16.40
2019-04-27T07:01:24.674Z,14.70
2019-04-27T07:04:29.420Z,14.50
2019-04-27T07:07:34.339Z,15.07
2019-04-27T07:10:39.251Z,14.37
2019-04-27T07:13:43.562Z,13.53
2019-04-27T07:16:48.786Z,14.00
2019-04-27T07:19:57.030Z,13.60
2019-04-27T07:23:01.294Z,13.83
2019-04-27T07:26:05.677Z,12.93
2019-04-27T07:29:10.163Z,12.53
2019-04-27T07:32:14.543Z,12.20
2019-04-27T07:35:19.661Z,13.30
2019-04-27T07:38:24.302Z,12.60
2019-04-27T07:41:29.153Z,12.67
2019-04-27T07:44:55.959Z,12.47
2019-04-27T07:48:00.315Z,12.93
2019-04-27T07:51:04.598Z,11.47
2019-04-27T07:54:09.054Z,11.60
2019-04-27T07:57:14.953Z,10.97
2019-04-27T08:00:19.500Z,10.97
2019-04-27T08:03:23.808Z,10.40
2019-04-27T08:06:29.032Z,9.70
2019-04-27T08:09:33.478Z,10.17
2019-04-27T08:12:38.882Z,9.87
2019-04-27T08:15:43.280Z,8.93
2019-04-27T08:18:49.293Z,8.13
2019-04-27T08:21:53.485Z,8.80
2019-04-27T08:24:59.316Z,8.43
2019-04-27T08:28:26.247Z,7.67
2019-04-27T08:31:38.680Z,8.07
2019-04-27T08:34:42.939Z,8.10
2019-04-27T08:37:47.272Z,7.73
2019-04-27T08:40:51.674Z,7.90
2019-04-27T08:43:55.939Z,8.10
2019-04-27T08:47:00.315Z,7.80
2019-04-27T08:50:04.778Z,7.07
2019-04-27T08:53:09.860Z,7.20
2019-04-27T08:56:14.310Z,7.70
2019-04-27T08:59:19.451Z,7.20
2019-04-27T09:02:23.874Z,6.80
2019-04-27T09:05:28.903Z,7.10
2019-04-27T09:08:45.386Z,6.80
2019-04-27T09:12:01.658Z,6.07
2019-04-27T09:15:19.247Z,6.53
2019-04-27T09:18:25.734Z,6.47
2019-04-27T09:21:49.026Z,6.30
2019-04-27T09:24:53.578Z,7.10
2019-04-27T09:27:59.590Z,7.40
2019-04-27T09:31:03.826Z,7.43
2019-04-27T09:34:08.177Z,6.57
2019-04-27T09:37:12.532Z,7.20
2019-04-27T09:40:17.178Z,8.20
2019-04-27T09:43:21.681Z,7.70
2019-04-27T09:46:26.090Z,8.90
2019-04-27T09:49:32.698Z,8.80
2019-04-27T09:52:36.976Z,8.77
2019-04-27T09:55:41.378Z,8.67
2019-04-27T09:58:47.124Z,8.80
2019-04-27T10:01:51.487Z,8.70
2019-04-27T10:04:56.556Z,9.30
2019-04-27T10:08:00.970Z,9.23
2019-04-27T10:11:05.957Z,8.93
2019-04-27T10:14:10.455Z,8.80
2019-04-27T10:17:14.806Z,9.07
2019-04-27T10:20:19.980Z,9.20
2019-04-27T10:23:24.408Z,9.20
2019-04-27T10:26:28.726Z,9.30
2019-04-27T10:29:33.089Z,9.03
2019-04-27T10:32:37.476Z,8.80
2019-04-27T10:35:41.735Z,9.50
2019-04-27T10:38:46.004Z,8.83
2019-04-27T10:41:50.221Z,8.30
2019-04-27T10:44:56.014Z,8.80
2019-04-27T10:48:00.391Z,8.50
2019-04-27T10:51:07.060Z,8.80
2019-04-27T10:54:10.790Z,7.73
2019-04-27T10:57:15.821Z,7.33
2019-04-27T11:00:27.624Z,8.40
2019-04-27T14:27:46.254Z,20.03
2019-04-27T14:30:50.611Z,19.87
2019-04-27T14:33:55.046Z,18.70
2019-04-27T14:36:59.500Z,18.77
2019-04-27T14:40:04.144Z,19.17
2019-04-27T14:43:08.636Z,18.17
2019-04-27T14:46:13.164Z,19.20
2019-04-27T14:49:18.238Z,19.87
2019-04-27T14:52:23.852Z,20.30
2019-04-27T14:55:29.964Z,20.77
2019-04-27T14:58:34.589Z,21.40
2019-04-27T15:01:40.065Z,21.47
2019-04-27T15:04:45.549Z,21.87
2019-04-27T15:07:50.970Z,21.60
2019-04-27T15:10:55.740Z,22.20
2019-04-27T15:14:02.072Z,21.63
2019-04-27T15:17:06.816Z,21.13
2019-04-27T15:20:16.418Z,21.00
2019-04-27T15:23:20.900Z,22.07
2019-04-27T15:26:25.143Z,22.63
2019-04-27T15:29:31.134Z,22.17
2019-04-27T15:32:55.055Z,22.03
2019-04-27T15:36:07.610Z,21.43
2019-04-27T15:39:18.334Z,21.83
2019-04-27T15:42:51.178Z,21.00
2019-04-27T15:45:49.416Z,20.70
2019-04-27T15:48:54.391Z,19.70
2019-04-27T15:52:00.156Z,20.23
2019-04-27T15:55:11.126Z,19.37
2019-04-27T15:58:12.200Z,18.53
2019-04-27T16:01:18.060Z,19.60
2019-04-27T16:04:23.162Z,20.87
2019-04-27T16:07:32.029Z,20.73
2019-04-27T16:10:37.381Z,21.17
2019-04-27T16:13:41.517Z,20.00
2019-04-27T16:16:46.508Z,19.13
2019-04-27T16:19:54.957Z,18.33
2019-04-27T16:23:03.099Z,16.67
2019-04-27T16:26:11.336Z,15.87
2019-04-27T16:29:13.629Z,14.83
2019-04-27T16:32:18.598Z,13.50
2019-04-27T16:35:23.598Z,13.80
2019-04-27T16:38:36.465Z,12.70
2019-04-27T16:41:42.091Z,13.87
2019-04-27T16:44:49.458Z,12.53
2019-04-27T16:47:56.678Z,12.10
2019-04-27T16:51:00.859Z,12.37
2019-04-27T16:54:05.535Z,11.50
2019-04-27T16:57:10.362Z,11.47
2019-04-27T17:00:18.277Z,9.83
2019-04-27T17:03:22.818Z,9.30
2019-04-27T17:06:29.541Z,9.33
2019-04-27T17:09:36.385Z,8.43
2019-04-27T17:12:45.274Z,8.67
2019-04-27T17:16:01.968Z,8.87
2019-04-27T17:19:14.628Z,10.00
2019-04-27T17:22:20.211Z,11.03
2019-04-27T17:25:24.823Z,10.17
2019-04-27T17:28:40.595Z,10.70
2019-04-27T17:31:50.572Z,11.07
2019-04-27T17:34:55.632Z,11.03
2019-04-27T17:38:03.682Z,9.60
2019-04-27T17:41:11.084Z,9.23
2019-04-27T17:44:12.781Z,9.80
2019-04-27T17:47:20.079Z,8.73
2019-04-27T17:50:25.406Z,8.80
2019-04-27T17:53:33.101Z,7.93
2019-04-27T17:56:48.255Z,7.53
2019-04-27T17:59:44.377Z,8.27
2019-04-27T18:02:50.490Z,7.40
2019-04-27T18:05:54.819Z,6.77
2019-04-27T18:09:03.309Z,8.20
2019-04-27T18:12:09.683Z,7.83
2019-04-27T18:15:22.708Z,8.10
2019-04-27T18:18:37.962Z,6.97
2019-04-27T18:22:04.059Z,7.10
2019-04-27T18:25:09.966Z,7.53
2019-04-27T18:28:20.728Z,7.30
2019-04-27T18:31:25.111Z,7.23
2019-04-27T18:34:29.393Z,7.80
2019-04-27T18:37:35.911Z,7.60
2019-04-27T18:40:40.275Z,7.73
2019-04-27T18:43:50.589Z,7.60
2019-04-27T18:46:53.668Z,7.90
2019-04-27T18:50:11.004Z,8.27
2019-04-27T18:53:23.233Z,7.50
2019-04-27T18:56:24.745Z,7.83
2019-04-27T18:59:29.107Z,9.33
2019-04-27T19:02:34.419Z,9.00
2019-04-27T19:05:40.471Z,8.83
2019-04-27T19:08:45.666Z,9.07
2019-04-27T19:11:56.247Z,8.90
2019-04-27T19:14:56.620Z,9.10
2019-04-27T19:18:00.964Z,9.40
2019-04-27T19:21:05.301Z,9.80
2019-04-27T19:24:09.651Z,11.07
2019-04-27T19:27:24.819Z,10.03
2019-04-27T19:30:33.539Z,13.03
2019-04-27T19:33:39.623Z,13.53
2019-04-27T19:36:44.170Z,16.00
2019-04-27T19:39:49.861Z,13.67
2019-04-27T19:42:54.465Z,14.33
2019-04-27T19:45:58.734Z,14.13
2019-04-27T19:49:03.130Z,13.53
2019-04-27T19:52:08.663Z,13.50
2019-04-27T19:55:13.415Z,13.57
2019-04-27T19:58:19.780Z,12.83
2019-04-27T20:01:38.297Z,13.13
2019-04-27T20:04:46.344Z,14.47
2019-04-27T20:07:50.617Z,14.00
2019-04-27T20:10:55.030Z,13.43
2019-04-27T20:14:00.776Z,13.37
2019-04-27T20:17:05.479Z,13.53
2019-04-27T20:20:09.957Z,14.23
2019-04-27T20:23:14.321Z,14.90
2019-04-27T20:26:18.592Z,14.53
2019-04-27T20:29:22.901Z,14.07
2019-04-27T20:32:27.181Z,15.00
2019-04-27T20:35:31.547Z,16.07
2019-04-27T20:38:37.157Z,15.43
2019-04-27T20:41:41.523Z,15.43
2019-04-27T20:44:45.852Z,17.50
2019-04-27T20:47:52.454Z,17.80
2019-04-27T20:50:56.201Z,17.50
2019-04-27T20:54:01.768Z,18.30
2019-04-27T20:57:06.468Z,19.33
2019-04-27T21:00:11.911Z,19.17
2019-04-27T21:03:44.209Z,19.10
2019-04-27T21:06:52.478Z,19.63
2019-04-27T21:09:56.853Z,20.90
2019-04-27T21:13:02.963Z,20.67
2019-04-27T21:16:07.327Z,22.83
2019-04-27T21:19:11.760Z,23.80
2019-04-27T21:22:19.111Z,23.23
2019-04-27T21:25:29.186Z,25.50
2019-04-27T21:28:34.887Z,26.57
2019-04-27T21:31:39.276Z,28.83
2019-04-27T21:34:43.634Z,34.70
2019-04-27T21:37:48.151Z,32.93
2019-04-27T21:40:52.504Z,34.43
2019-04-27T21:43:56.807Z,32.90
2019-04-27T21:47:01.148Z,32.67
2019-04-27T21:50:05.782Z,33.73
2019-04-27T21:53:21.157Z,32.67
2019-04-27T21:56:25.537Z,33.33
2019-04-27T21:59:30.071Z,32.03
2019-04-27T22:02:35.028Z,33.43
2019-04-27T22:05:41.499Z,32.80
2019-04-27T22:08:45.534Z,32.90
2019-04-27T22:11:51.088Z,31.73
2019-04-27T22:14:55.524Z,32.87
2019-04-27T22:18:00.684Z,32.73
2019-04-27T22:21:06.340Z,33.50
2019-04-27T22:24:19.158Z,31.50
2019-04-27T22:27:23.880Z,30.13
2019-04-27T22:30:28.231Z,31.10
2019-04-27T22:33:32.534Z,31.53
2019-04-27T22:36:36.882Z,29.63
2019-04-27T22:40:01.037Z,30.37
2019-04-27T22:43:24.450Z,31.07
2019-04-27T22:46:30.806Z,31.33
2019-04-27T22:49:35.292Z,30.67
2019-04-27T22:52:41.073Z,30.00
2019-04-27T22:56:03.330Z,28.83
2019-04-27T22:59:14.544Z,30.80
2019-04-27T23:02:24.887Z,28.70
2019-04-27T23:05:29.378Z,29.37
2019-04-27T23:08:33.640Z,28.27
2019-04-27T23:11:37.979Z,28.57
2019-04-27T23:14:42.534Z,28.47
2019-04-27T23:18:04.033Z,31.57
2019-04-27T23:21:08.387Z,28.07
2019-04-27T23:24:12.691Z,29.90
2019-04-27T23:27:16.965Z,28.60
2019-04-27T23:30:23.475Z,28.37
2019-04-27T23:33:27.819Z,28.83
2019-04-27T23:36:32.118Z,28.20
2019-04-27T23:39:36.359Z,28.90
2019-04-27T23:42:41.625Z,28.37
2019-04-27T23:45:46.076Z,29.03
2019-04-27T23:48:52.031Z,28.53
2019-04-27T23:52:15.322Z,27.87
2019-04-27T23:55:20.851Z,29.53
2019-04-27T23:58:25.490Z,29.23
